sensor_id;sensor_type;location;lat;lon;timestamp;P1;durP1;ratioP1;P2;durP2;ratioP2
80133;SDS011;69443;51.442;10.564;2023-05-10T00:01:52;4.30;;;2.70;;
80133;SDS011;69443;51.442;10.564;2023-05-10T00:04:17;3.33;;;2.83;;
80133;SDS011;69443;51.442;10.564;2023-05-10T00:06:42;3.33;;;3.03;;
80133;SDS011;69443;51.442;10.564;2023-05-10T00:09:08;3.00;;;2.28;;
80133;SDS011;69443;51.442;10.564;2023-05-10T00:11:33;4.05;;;2.75;;
80133;SDS011;69443;51.442;10.564;2023-05-10T00:13:59;3.22;;;2.83;;
80133;SDS011;69443;51.442;10.564;2023-05-10T00:16:24;4.43;;;3.35;;
80133;SDS011;69443;51.442;10.564;2023-05-10T00:18:49;5.10;;;3.53;;
80133;SDS011;69443;51.442;10.564;2023-05-10T00:21:15;4.07;;;2.80;;
80133;SDS011;69443;51.442;10.564;2023-05-10T00:23:40;3.50;;;2.80;;
80133;SDS011;69443;51.442;10.564;2023-05-10T00:26:05;5.00;;;2.95;;
80133;SDS011;69443;51.442;10.564;2023-05-10T00:28:31;3.38;;;3.00;;
80133;SDS011;69443;51.442;10.564;2023-05-10T00:30:56;3.38;;;2.85;;
80133;SDS011;69443;51.442;10.564;2023-05-10T00:33:21;4.13;;;2.97;;
80133;SDS011;69443;51.442;10.564;2023-05-10T00:35:47;3.42;;;2.80;;
80133;SDS011;69443;51.442;10.564;2023-05-10T00:38:12;4.65;;;2.85;;
80133;SDS011;69443;51.442;10.564;2023-05-10T00:40:38;2.28;;;2.08;;
80133;SDS011;69443;51.442;10.564;2023-05-10T00:43:03;3.08;;;2.75;;
80133;SDS011;69443;51.442;10.564;2023-05-10T00:45:30;3.65;;;2.55;;
80133;SDS011;69443;51.442;10.564;2023-05-10T00:47:56;3.20;;;2.90;;
80133;SDS011;69443;51.442;10.564;2023-05-10T00:50:22;4.35;;;2.90;;
80133;SDS011;69443;51.442;10.564;2023-05-10T00:52:48;3.83;;;2.58;;
80133;SDS011;69443;51.442;10.564;2023-05-10T00:55:14;3.38;;;2.97;;
80133;SDS011;69443;51.442;10.564;2023-05-10T00:57:39;4.00;;;2.78;;
80133;SDS011;69443;51.442;10.564;2023-05-10T01:00:05;4.45;;;3.00;;
80133;SDS011;69443;51.442;10.564;2023-05-10T01:02:31;4.13;;;3.03;;
80133;SDS011;69443;51.442;10.564;2023-05-10T01:04:58;4.85;;;3.25;;
80133;SDS011;69443;51.442;10.564;2023-05-10T01:07:24;5.25;;;3.80;;
80133;SDS011;69443;51.442;10.564;2023-05-10T01:09:50;4.63;;;3.17;;
80133;SDS011;69443;51.442;10.564;2023-05-10T01:12:15;4.15;;;2.80;;
80133;SDS011;69443;51.442;10.564;2023-05-10T01:14:41;4.50;;;3.05;;
80133;SDS011;69443;51.442;10.564;2023-05-10T01:17:07;6.82;;;4.32;;
80133;SDS011;69443;51.442;10.564;2023-05-10T01:19:34;6.00;;;4.22;;
80133;SDS011;69443;51.442;10.564;2023-05-10T01:22:04;6.53;;;4.10;;
80133;SDS011;69443;51.442;10.564;2023-05-10T01:44:35;8.00;;;4.07;;
80133;SDS011;69443;51.442;10.564;2023-05-10T01:47:05;6.22;;;4.15;;
80133;SDS011;69443;51.442;10.564;2023-05-10T01:49:52;5.43;;;4.65;;
80133;SDS011;69443;51.442;10.564;2023-05-10T01:52:21;4.65;;;3.78;;
80133;SDS011;69443;51.442;10.564;2023-05-10T01:54:55;5.82;;;4.68;;
80133;SDS011;69443;51.442;10.564;2023-05-10T01:57:25;4.28;;;3.78;;
80133;SDS011;69443;51.442;10.564;2023-05-10T01:59:52;6.03;;;4.70;;
80133;SDS011;69443;51.442;10.564;2023-05-10T02:02:20;5.57;;;4.13;;
80133;SDS011;69443;51.442;10.564;2023-05-10T02:04:46;5.28;;;3.45;;
80133;SDS011;69443;51.442;10.564;2023-05-10T02:07:14;5.25;;;4.35;;
80133;SDS011;69443;51.442;10.564;2023-05-10T02:09:41;6.38;;;4.78;;
80133;SDS011;69443;51.442;10.564;2023-05-10T02:12:08;5.13;;;4.63;;
80133;SDS011;69443;51.442;10.564;2023-05-10T02:14:35;5.63;;;4.40;;
80133;SDS011;69443;51.442;10.564;2023-05-10T02:17:02;6.68;;;4.65;;
80133;SDS011;69443;51.442;10.564;2023-05-10T02:19:29;3.80;;;3.28;;
80133;SDS011;69443;51.442;10.564;2023-05-10T02:21:56;5.85;;;4.28;;
80133;SDS011;69443;51.442;10.564;2023-05-10T02:24:23;4.70;;;4.15;;
80133;SDS011;69443;51.442;10.564;2023-05-10T02:26:50;5.55;;;4.53;;
80133;SDS011;69443;51.442;10.564;2023-05-10T02:29:18;2.88;;;2.63;;
80133;SDS011;69443;51.442;10.564;2023-05-10T02:31:45;5.78;;;4.53;;
80133;SDS011;69443;51.442;10.564;2023-05-10T02:34:11;5.78;;;4.28;;
80133;SDS011;69443;51.442;10.564;2023-05-10T02:36:37;4.55;;;3.28;;
80133;SDS011;69443;51.442;10.564;2023-05-10T02:39:04;4.15;;;3.75;;
80133;SDS011;69443;51.442;10.564;2023-05-10T02:41:34;5.20;;;3.58;;
80133;SDS011;69443;51.442;10.564;2023-05-10T02:44:01;4.53;;;3.88;;
80133;SDS011;69443;51.442;10.564;2023-05-10T02:46:27;6.28;;;3.80;;
80133;SDS011;69443;51.442;10.564;2023-05-10T02:48:53;4.43;;;3.72;;
80133;SDS011;69443;51.442;10.564;2023-05-10T02:51:19;5.20;;;3.72;;
80133;SDS011;69443;51.442;10.564;2023-05-10T02:53:49;4.13;;;3.47;;
80133;SDS011;69443;51.442;10.564;2023-05-10T02:56:23;5.82;;;3.35;;
80133;SDS011;69443;51.442;10.564;2023-05-10T02:58:53;5.80;;;4.28;;
80133;SDS011;69443;51.442;10.564;2023-05-10T03:01:20;3.90;;;3.50;;
80133;SDS011;69443;51.442;10.564;2023-05-10T03:03:45;5.90;;;4.18;;
80133;SDS011;69443;51.442;10.564;2023-05-10T03:06:11;5.13;;;4.28;;
80133;SDS011;69443;51.442;10.564;2023-05-10T03:08:36;9.32;;;4.13;;
80133;SDS011;69443;51.442;10.564;2023-05-10T03:16:41;4.93;;;4.15;;
80133;SDS011;69443;51.442;10.564;2023-05-10T03:19:16;5.20;;;4.10;;
80133;SDS011;69443;51.442;10.564;2023-05-10T03:21:49;5.45;;;4.35;;
80133;SDS011;69443;51.442;10.564;2023-05-10T03:24:16;3.20;;;2.40;;
80133;SDS011;69443;51.442;10.564;2023-05-10T03:26:45;5.88;;;4.10;;
80133;SDS011;69443;51.442;10.564;2023-05-10T03:29:11;6.47;;;3.88;;
80133;SDS011;69443;51.442;10.564;2023-05-10T03:31:39;4.88;;;4.38;;
80133;SDS011;69443;51.442;10.564;2023-05-10T03:34:04;6.43;;;4.40;;
80133;SDS011;69443;51.442;10.564;2023-05-10T03:36:31;6.30;;;3.90;;
80133;SDS011;69443;51.442;10.564;2023-05-10T03:38:56;7.22;;;4.53;;
80133;SDS011;69443;51.442;10.564;2023-05-10T03:41:22;6.05;;;3.80;;
80133;SDS011;69443;51.442;10.564;2023-05-10T03:43:47;3.20;;;2.83;;
80133;SDS011;69443;51.442;10.564;2023-05-10T03:46:12;6.40;;;4.82;;
80133;SDS011;69443;51.442;10.564;2023-05-10T03:48:38;4.65;;;3.85;;
80133;SDS011;69443;51.442;10.564;2023-05-10T03:51:03;5.30;;;4.38;;
80133;SDS011;69443;51.442;10.564;2023-05-10T03:53:28;5.85;;;4.70;;
80133;SDS011;69443;51.442;10.564;2023-05-10T03:55:54;6.63;;;4.32;;
80133;SDS011;69443;51.442;10.564;2023-05-10T03:58:19;5.07;;;4.22;;
80133;SDS011;69443;51.442;10.564;2023-05-10T04:00:45;7.43;;;3.97;;
80133;SDS011;69443;51.442;10.564;2023-05-10T04:03:11;4.35;;;3.60;;
80133;SDS011;69443;51.442;10.564;2023-05-10T04:05:37;2.80;;;2.53;;
80133;SDS011;69443;51.442;10.564;2023-05-10T04:08:02;2.25;;;2.05;;
80133;SDS011;69443;51.442;10.564;2023-05-10T04:10:28;5.53;;;4.25;;
80133;SDS011;69443;51.442;10.564;2023-05-10T04:12:54;5.05;;;4.40;;
80133;SDS011;69443;51.442;10.564;2023-05-10T04:15:19;5.07;;;4.57;;
80133;SDS011;69443;51.442;10.564;2023-05-10T04:17:45;7.38;;;4.50;;
80133;SDS011;69443;51.442;10.564;2023-05-10T04:20:11;6.30;;;4.63;;
80133;SDS011;69443;51.442;10.564;2023-05-10T04:22:36;7.05;;;4.80;;
80133;SDS011;69443;51.442;10.564;2023-05-10T04:25:02;7.45;;;4.50;;
80133;SDS011;69443;51.442;10.564;2023-05-10T04:27:27;6.68;;;4.53;;
80133;SDS011;69443;51.442;10.564;2023-05-10T04:29:53;5.95;;;4.70;;
80133;SDS011;69443;51.442;10.564;2023-05-10T04:32:18;6.85;;;4.28;;
80133;SDS011;69443;51.442;10.564;2023-05-10T04:34:45;4.50;;;3.58;;
80133;SDS011;69443;51.442;10.564;2023-05-10T04:37:10;8.05;;;4.60;;
80133;SDS011;69443;51.442;10.564;2023-05-10T04:39:35;5.25;;;4.40;;
80133;SDS011;69443;51.442;10.564;2023-05-10T04:42:02;5.82;;;3.80;;
80133;SDS011;69443;51.442;10.564;2023-05-10T04:44:28;5.93;;;4.28;;
80133;SDS011;69443;51.442;10.564;2023-05-10T04:46:55;5.18;;;4.10;;
80133;SDS011;69443;51.442;10.564;2023-05-10T04:49:20;4.72;;;4.30;;
80133;SDS011;69443;51.442;10.564;2023-05-10T04:51:46;8.65;;;4.47;;
80133;SDS011;69443;51.442;10.564;2023-05-10T04:54:12;5.05;;;4.55;;
80133;SDS011;69443;51.442;10.564;2023-05-10T04:56:37;5.65;;;4.07;;
80133;SDS011;69443;51.442;10.564;2023-05-10T04:59:02;7.03;;;4.70;;
80133;SDS011;69443;51.442;10.564;2023-05-10T05:01:28;5.55;;;4.72;;
80133;SDS011;69443;51.442;10.564;2023-05-10T05:03:53;5.30;;;4.80;;
80133;SDS011;69443;51.442;10.564;2023-05-10T05:06:19;3.85;;;3.30;;
80133;SDS011;69443;51.442;10.564;2023-05-10T05:08:45;3.83;;;3.30;;
80133;SDS011;69443;51.442;10.564;2023-05-10T05:11:11;6.20;;;4.65;;
80133;SDS011;69443;51.442;10.564;2023-05-10T05:13:36;6.43;;;4.80;;
80133;SDS011;69443;51.442;10.564;2023-05-10T05:16:02;5.07;;;4.25;;
80133;SDS011;69443;51.442;10.564;2023-05-10T05:18:28;5.57;;;4.53;;
80133;SDS011;69443;51.442;10.564;2023-05-10T05:20:53;4.45;;;3.72;;
80133;SDS011;69443;51.442;10.564;2023-05-10T05:23:19;4.18;;;3.78;;
80133;SDS011;69443;51.442;10.564;2023-05-10T05:25:45;5.05;;;4.38;;
80133;SDS011;69443;51.442;10.564;2023-05-10T05:28:11;4.93;;;4.32;;
80133;SDS011;69443;51.442;10.564;2023-05-10T05:30:36;4.80;;;4.30;;
80133;SDS011;69443;51.442;10.564;2023-05-10T05:33:02;5.45;;;4.95;;
80133;SDS011;69443;51.442;10.564;2023-05-10T05:35:27;2.63;;;2.42;;
80133;SDS011;69443;51.442;10.564;2023-05-10T05:37:53;2.47;;;2.28;;
80133;SDS011;69443;51.442;10.564;2023-05-10T05:40:18;2.30;;;2.10;;
80133;SDS011;69443;51.442;10.564;2023-05-10T05:42:43;4.72;;;3.88;;
80133;SDS011;69443;51.442;10.564;2023-05-10T05:45:09;6.05;;;4.38;;
80133;SDS011;69443;51.442;10.564;2023-05-10T05:47:37;5.68;;;4.50;;
80133;SDS011;69443;51.442;10.564;2023-05-10T05:50:03;4.97;;;4.38;;
80133;SDS011;69443;51.442;10.564;2023-05-10T05:52:29;6.07;;;4.72;;
80133;SDS011;69443;51.442;10.564;2023-05-10T05:54:55;6.03;;;4.70;;
80133;SDS011;69443;51.442;10.564;2023-05-10T05:57:20;7.68;;;5.30;;
80133;SDS011;69443;51.442;10.564;2023-05-10T05:59:46;3.72;;;3.35;;
80133;SDS011;69443;51.442;10.564;2023-05-10T06:02:12;6.13;;;4.75;;
80133;SDS011;69443;51.442;10.564;2023-05-10T06:04:37;5.60;;;4.78;;
80133;SDS011;69443;51.442;10.564;2023-05-10T06:07:03;5.90;;;5.00;;
80133;SDS011;69443;51.442;10.564;2023-05-10T06:09:28;7.75;;;5.25;;
80133;SDS011;69443;51.442;10.564;2023-05-10T06:11:54;7.72;;;4.97;;
80133;SDS011;69443;51.442;10.564;2023-05-10T06:14:22;6.40;;;5.65;;
80133;SDS011;69443;51.442;10.564;2023-05-10T06:16:47;6.70;;;4.80;;
80133;SDS011;69443;51.442;10.564;2023-05-10T06:19:13;3.72;;;3.38;;
80133;SDS011;69443;51.442;10.564;2023-05-10T06:21:38;3.58;;;3.15;;
80133;SDS011;69443;51.442;10.564;2023-05-10T06:24:04;4.13;;;3.72;;
80133;SDS011;69443;51.442;10.564;2023-05-10T06:26:31;6.50;;;4.82;;
80133;SDS011;69443;51.442;10.564;2023-05-10T06:28:58;2.72;;;2.42;;
80133;SDS011;69443;51.442;10.564;2023-05-10T06:31:23;4.47;;;3.85;;
80133;SDS011;69443;51.442;10.564;2023-05-10T06:33:48;5.55;;;4.60;;
80133;SDS011;69443;51.442;10.564;2023-05-10T06:36:14;2.95;;;2.50;;
80133;SDS011;69443;51.442;10.564;2023-05-10T06:38:39;7.78;;;5.15;;
80133;SDS011;69443;51.442;10.564;2023-05-10T06:41:05;8.00;;;5.88;;
80133;SDS011;69443;51.442;10.564;2023-05-10T06:43:31;3.50;;;3.03;;
80133;SDS011;69443;51.442;10.564;2023-05-10T06:45:56;6.97;;;5.65;;
80133;SDS011;69443;51.442;10.564;2023-05-10T06:48:22;3.58;;;2.55;;
80133;SDS011;69443;51.442;10.564;2023-05-10T06:50:47;3.50;;;2.65;;
80133;SDS011;69443;51.442;10.564;2023-05-10T06:53:13;8.13;;;5.20;;
80133;SDS011;69443;51.442;10.564;2023-05-10T06:55:38;6.75;;;5.32;;
80133;SDS011;69443;51.442;10.564;2023-05-10T06:58:04;6.95;;;5.07;;
80133;SDS011;69443;51.442;10.564;2023-05-10T07:00:30;6.20;;;4.70;;
80133;SDS011;69443;51.442;10.564;2023-05-10T07:02:55;6.20;;;4.90;;
80133;SDS011;69443;51.442;10.564;2023-05-10T07:05:20;7.50;;;5.28;;
80133;SDS011;69443;51.442;10.564;2023-05-10T07:07:46;5.90;;;5.30;;
80133;SDS011;69443;51.442;10.564;2023-05-10T07:10:11;7.00;;;5.60;;
80133;SDS011;69443;51.442;10.564;2023-05-10T07:12:37;8.52;;;6.32;;
80133;SDS011;69443;51.442;10.564;2023-05-10T07:15:03;7.05;;;5.75;;
80133;SDS011;69443;51.442;10.564;2023-05-10T07:17:29;7.10;;;6.25;;
80133;SDS011;69443;51.442;10.564;2023-05-10T07:19:54;6.20;;;5.40;;
80133;SDS011;69443;51.442;10.564;2023-05-10T07:22:20;6.93;;;5.45;;
80133;SDS011;69443;51.442;10.564;2023-05-10T07:24:45;8.13;;;5.70;;
80133;SDS011;69443;51.442;10.564;2023-05-10T07:27:11;9.02;;;6.22;;
80133;SDS011;69443;51.442;10.564;2023-05-10T07:29:38;5.65;;;4.97;;
80133;SDS011;69443;51.442;10.564;2023-05-10T07:32:04;7.32;;;4.90;;
80133;SDS011;69443;51.442;10.564;2023-05-10T07:34:30;5.88;;;4.80;;
80133;SDS011;69443;51.442;10.564;2023-05-10T07:36:59;6.40;;;4.75;;
80133;SDS011;69443;51.442;10.564;2023-05-10T07:39:25;8.48;;;5.75;;
80133;SDS011;69443;51.442;10.564;2023-05-10T07:41:52;6.28;;;5.07;;
80133;SDS011;69443;51.442;10.564;2023-05-10T07:44:18;5.68;;;4.82;;
80133;SDS011;69443;51.442;10.564;2023-05-10T07:46:45;5.70;;;5.10;;
80133;SDS011;69443;51.442;10.564;2023-05-10T07:49:10;6.25;;;5.50;;
80133;SDS011;69443;51.442;10.564;2023-05-10T07:51:36;6.32;;;5.28;;
80133;SDS011;69443;51.442;10.564;2023-05-10T07:54:01;6.15;;;5.50;;
80133;SDS011;69443;51.442;10.564;2023-05-10T07:56:29;8.07;;;5.65;;
80133;SDS011;69443;51.442;10.564;2023-05-10T07:58:56;7.60;;;5.22;;
80133;SDS011;69443;51.442;10.564;2023-05-10T08:01:22;6.13;;;5.18;;
80133;SDS011;69443;51.442;10.564;2023-05-10T08:03:49;8.00;;;5.68;;
80133;SDS011;69443;51.442;10.564;2023-05-10T08:06:16;6.28;;;5.40;;
80133;SDS011;69443;51.442;10.564;2023-05-10T08:08:42;7.45;;;5.38;;
80133;SDS011;69443;51.442;10.564;2023-05-10T08:11:07;6.78;;;5.57;;
80133;SDS011;69443;51.442;10.564;2023-05-10T08:13:33;6.72;;;5.90;;
80133;SDS011;69443;51.442;10.564;2023-05-10T08:15:59;8.02;;;5.60;;
80133;SDS011;69443;51.442;10.564;2023-05-10T08:18:24;5.07;;;4.50;;
80133;SDS011;69443;51.442;10.564;2023-05-10T08:20:49;4.38;;;3.60;;
80133;SDS011;69443;51.442;10.564;2023-05-10T08:23:15;8.82;;;5.95;;
80133;SDS011;69443;51.442;10.564;2023-05-10T08:25:40;5.15;;;3.85;;
80133;SDS011;69443;51.442;10.564;2023-05-10T08:28:06;3.58;;;2.97;;
80133;SDS011;69443;51.442;10.564;2023-05-10T08:30:31;5.80;;;4.90;;
80133;SDS011;69443;51.442;10.564;2023-05-10T08:32:56;6.75;;;5.35;;
80133;SDS011;69443;51.442;10.564;2023-05-10T08:35:22;4.93;;;3.30;;
80133;SDS011;69443;51.442;10.564;2023-05-10T08:37:47;4.10;;;2.72;;
80133;SDS011;69443;51.442;10.564;2023-05-10T08:40:13;4.50;;;3.58;;
80133;SDS011;69443;51.442;10.564;2023-05-10T08:42:40;6.47;;;4.97;;
80133;SDS011;69443;51.442;10.564;2023-05-10T08:47:37;4.57;;;4.10;;
80133;SDS011;69443;51.442;10.564;2023-05-10T08:50:03;4.82;;;4.10;;
80133;SDS011;69443;51.442;10.564;2023-05-10T08:52:29;4.45;;;3.88;;
80133;SDS011;69443;51.442;10.564;2023-05-10T08:54:56;3.40;;;3.10;;
80133;SDS011;69443;51.442;10.564;2023-05-10T08:57:22;3.33;;;2.63;;
80133;SDS011;69443;51.442;10.564;2023-05-10T08:59:47;3.40;;;2.25;;
80133;SDS011;69443;51.442;10.564;2023-05-10T09:02:13;3.17;;;2.60;;
80133;SDS011;69443;51.442;10.564;2023-05-10T09:04:38;2.40;;;2.20;;
80133;SDS011;69443;51.442;10.564;2023-05-10T09:07:04;1.80;;;1.48;;
80133;SDS011;69443;51.442;10.564;2023-05-10T09:09:31;1.00;;;1.00;;
80133;SDS011;69443;51.442;10.564;2023-05-10T09:11:57;1.05;;;0.95;;
80133;SDS011;69443;51.442;10.564;2023-05-10T09:14:23;0.50;;;0.50;;
80133;SDS011;69443;51.442;10.564;2023-05-10T09:16:50;0.60;;;0.60;;
80133;SDS011;69443;51.442;10.564;2023-05-10T09:19:16;0.60;;;0.60;;
80133;SDS011;69443;51.442;10.564;2023-05-10T09:21:42;1.10;;;0.95;;
80133;SDS011;69443;51.442;10.564;2023-05-10T09:24:08;0.38;;;0.30;;
80133;SDS011;69443;51.442;10.564;2023-05-10T09:26:34;0.45;;;0.30;;
80133;SDS011;69443;51.442;10.564;2023-05-10T09:29:00;0.30;;;0.30;;
80133;SDS011;69443;51.442;10.564;2023-05-10T09:31:43;0.40;;;0.40;;
80133;SDS011;69443;51.442;10.564;2023-05-10T09:34:15;1.08;;;0.98;;
80133;SDS011;69443;51.442;10.564;2023-05-10T09:36:54;1.73;;;0.47;;
80133;SDS011;69443;51.442;10.564;2023-05-10T09:39:21;0.57;;;0.38;;
80133;SDS011;69443;51.442;10.564;2023-05-10T09:41:55;1.92;;;0.40;;
80133;SDS011;69443;51.442;10.564;2023-05-10T09:44:21;0.73;;;0.60;;
80133;SDS011;69443;51.442;10.564;2023-05-10T09:46:50;0.40;;;0.40;;
80133;SDS011;69443;51.442;10.564;2023-05-10T09:49:17;0.32;;;0.30;;
80133;SDS011;69443;51.442;10.564;2023-05-10T09:51:43;0.80;;;0.80;;
80133;SDS011;69443;51.442;10.564;2023-05-10T09:54:15;1.20;;;1.10;;
80133;SDS011;69443;51.442;10.564;2023-05-10T09:56:41;0.80;;;0.80;;
80133;SDS011;69443;51.442;10.564;2023-05-10T09:59:09;0.40;;;0.40;;
80133;SDS011;69443;51.442;10.564;2023-05-10T10:01:36;0.75;;;0.75;;
80133;SDS011;69443;51.442;10.564;2023-05-10T10:04:05;0.60;;;0.60;;
80133;SDS011;69443;51.442;10.564;2023-05-10T10:06:37;0.43;;;0.40;;
80133;SDS011;69443;51.442;10.564;2023-05-10T10:09:04;0.68;;;0.55;;
80133;SDS011;69443;51.442;10.564;2023-05-10T10:11:35;0.88;;;0.88;;
80133;SDS011;69443;51.442;10.564;2023-05-10T10:14:00;0.50;;;0.50;;
80133;SDS011;69443;51.442;10.564;2023-05-10T10:16:27;0.32;;;0.32;;
80133;SDS011;69443;51.442;10.564;2023-05-10T10:18:54;0.88;;;0.80;;
80133;SDS011;69443;51.442;10.564;2023-05-10T10:21:20;0.40;;;0.40;;
80133;SDS011;69443;51.442;10.564;2023-05-10T10:23:46;0.55;;;0.55;;
80133;SDS011;69443;51.442;10.564;2023-05-10T10:26:12;0.85;;;0.70;;
80133;SDS011;69443;51.442;10.564;2023-05-10T10:31:41;0.60;;;0.60;;
80133;SDS011;69443;51.442;10.564;2023-05-10T10:34:22;0.63;;;0.60;;
80133;SDS011;69443;51.442;10.564;2023-05-10T10:36:51;0.50;;;0.50;;
80133;SDS011;69443;51.442;10.564;2023-05-10T10:39:18;0.80;;;0.50;;
80133;SDS011;69443;51.442;10.564;2023-05-10T10:41:49;0.45;;;0.40;;
80133;SDS011;69443;51.442;10.564;2023-05-10T10:47:03;0.70;;;0.70;;
80133;SDS011;69443;51.442;10.564;2023-05-10T10:54:40;0.38;;;0.38;;
80133;SDS011;69443;51.442;10.564;2023-05-10T10:57:13;0.50;;;0.50;;
80133;SDS011;69443;51.442;10.564;2023-05-10T10:59:42;0.50;;;0.50;;
80133;SDS011;69443;51.442;10.564;2023-05-10T11:02:08;0.85;;;0.70;;
80133;SDS011;69443;51.442;10.564;2023-05-10T11:04:43;1.05;;;0.70;;
80133;SDS011;69443;51.442;10.564;2023-05-10T11:07:17;0.82;;;0.80;;
80133;SDS011;69443;51.442;10.564;2023-05-10T11:09:44;0.60;;;0.57;;
80133;SDS011;69443;51.442;10.564;2023-05-10T11:12:11;0.68;;;0.68;;
80133;SDS011;69443;51.442;10.564;2023-05-10T11:14:37;0.57;;;0.50;;
80133;SDS011;69443;51.442;10.564;2023-05-10T11:17:21;1.02;;;0.60;;
80133;SDS011;69443;51.442;10.564;2023-05-10T11:22:53;0.47;;;0.47;;
80133;SDS011;69443;51.442;10.564;2023-05-10T11:25:27;0.40;;;0.30;;
80133;SDS011;69443;51.442;10.564;2023-05-10T11:27:53;0.47;;;0.40;;
80133;SDS011;69443;51.442;10.564;2023-05-10T11:30:18;0.82;;;0.50;;
80133;SDS011;69443;51.442;10.564;2023-05-10T11:32:44;2.20;;;0.57;;
80133;SDS011;69443;51.442;10.564;2023-05-10T11:35:10;2.60;;;0.60;;
80133;SDS011;69443;51.442;10.564;2023-05-10T11:37:37;0.85;;;0.55;;
80133;SDS011;69443;51.442;10.564;2023-05-10T11:40:07;0.50;;;0.50;;
80133;SDS011;69443;51.442;10.564;2023-05-10T11:42:35;0.50;;;0.50;;
80133;SDS011;69443;51.442;10.564;2023-05-10T11:45:02;0.70;;;0.70;;
80133;SDS011;69443;51.442;10.564;2023-05-10T11:47:29;0.40;;;0.40;;
80133;SDS011;69443;51.442;10.564;2023-05-10T11:49:54;0.95;;;0.40;;
80133;SDS011;69443;51.442;10.564;2023-05-10T11:52:20;0.47;;;0.30;;
80133;SDS011;69443;51.442;10.564;2023-05-10T11:54:50;0.20;;;0.20;;
80133;SDS011;69443;51.442;10.564;2023-05-10T11:57:18;0.25;;;0.20;;
80133;SDS011;69443;51.442;10.564;2023-05-10T11:59:44;0.30;;;0.30;;
80133;SDS011;69443;51.442;10.564;2023-05-10T12:02:10;0.68;;;0.30;;
80133;SDS011;69443;51.442;10.564;2023-05-10T12:04:36;1.80;;;1.30;;
80133;SDS011;69443;51.442;10.564;2023-05-10T12:07:02;0.22;;;0.22;;
80133;SDS011;69443;51.442;10.564;2023-05-10T12:09:27;0.40;;;0.40;;
80133;SDS011;69443;51.442;10.564;2023-05-10T12:11:55;0.30;;;0.30;;
80133;SDS011;69443;51.442;10.564;2023-05-10T12:14:21;0.75;;;0.40;;
80133;SDS011;69443;51.442;10.564;2023-05-10T12:16:47;0.30;;;0.30;;
80133;SDS011;69443;51.442;10.564;2023-05-10T12:19:13;0.30;;;0.30;;
80133;SDS011;69443;51.442;10.564;2023-05-10T12:21:46;0.68;;;0.40;;
80133;SDS011;69443;51.442;10.564;2023-05-10T12:24:12;0.30;;;0.28;;
80133;SDS011;69443;51.442;10.564;2023-05-10T12:26:37;0.32;;;0.30;;
80133;SDS011;69443;51.442;10.564;2023-05-10T12:29:12;0.55;;;0.30;;
80133;SDS011;69443;51.442;10.564;2023-05-10T12:32:00;0.65;;;0.30;;
80133;SDS011;69443;51.442;10.564;2023-05-10T12:34:32;0.30;;;0.25;;
80133;SDS011;69443;51.442;10.564;2023-05-10T12:36:59;0.63;;;0.30;;
80133;SDS011;69443;51.442;10.564;2023-05-10T12:39:25;0.30;;;0.30;;
80133;SDS011;69443;51.442;10.564;2023-05-10T12:41:51;0.57;;;0.30;;
80133;SDS011;69443;51.442;10.564;2023-05-10T12:44:17;0.40;;;0.30;;
80133;SDS011;69443;51.442;10.564;2023-05-10T12:46:43;0.40;;;0.20;;
80133;SDS011;69443;51.442;10.564;2023-05-10T12:49:08;0.40;;;0.30;;
80133;SDS011;69443;51.442;10.564;2023-05-10T12:51:34;0.63;;;0.40;;
80133;SDS011;69443;51.442;10.564;2023-05-10T12:53:59;1.27;;;0.40;;
80133;SDS011;69443;51.442;10.564;2023-05-10T12:56:24;0.82;;;0.40;;
80133;SDS011;69443;51.442;10.564;2023-05-10T12:58:50;0.47;;;0.40;;
80133;SDS011;69443;51.442;10.564;2023-05-10T13:01:16;0.32;;;0.30;;
80133;SDS011;69443;51.442;10.564;2023-05-10T13:03:41;0.25;;;0.25;;
80133;SDS011;69443;51.442;10.564;2023-05-10T13:06:08;0.70;;;0.50;;
80133;SDS011;69443;51.442;10.564;2023-05-10T13:08:33;0.52;;;0.50;;
80133;SDS011;69443;51.442;10.564;2023-05-10T13:10:59;0.35;;;0.35;;
80133;SDS011;69443;51.442;10.564;2023-05-10T13:13:25;0.20;;;0.20;;
80133;SDS011;69443;51.442;10.564;2023-05-10T13:15:51;0.82;;;0.28;;
80133;SDS011;69443;51.442;10.564;2023-05-10T13:18:16;0.20;;;0.20;;
80133;SDS011;69443;51.442;10.564;2023-05-10T13:20:42;0.57;;;0.30;;
80133;SDS011;69443;51.442;10.564;2023-05-10T13:23:09;0.70;;;0.40;;
80133;SDS011;69443;51.442;10.564;2023-05-10T13:25:35;1.40;;;0.50;;
80133;SDS011;69443;51.442;10.564;2023-05-10T13:28:00;0.30;;;0.30;;
80133;SDS011;69443;51.442;10.564;2023-05-10T13:30:26;1.77;;;0.40;;
80133;SDS011;69443;51.442;10.564;2023-05-10T13:32:51;0.60;;;0.40;;
80133;SDS011;69443;51.442;10.564;2023-05-10T13:35:17;0.30;;;0.30;;
80133;SDS011;69443;51.442;10.564;2023-05-10T13:37:42;1.48;;;0.30;;
80133;SDS011;69443;51.442;10.564;2023-05-10T13:40:08;0.40;;;0.40;;
80133;SDS011;69443;51.442;10.564;2023-05-10T13:42:33;0.50;;;0.40;;
80133;SDS011;69443;51.442;10.564;2023-05-10T13:44:59;1.13;;;0.40;;
80133;SDS011;69443;51.442;10.564;2023-05-10T13:47:28;1.00;;;0.50;;
80133;SDS011;69443;51.442;10.564;2023-05-10T13:49:54;0.32;;;0.32;;
80133;SDS011;69443;51.442;10.564;2023-05-10T13:52:19;0.40;;;0.40;;
80133;SDS011;69443;51.442;10.564;2023-05-10T13:54:44;0.63;;;0.60;;
80133;SDS011;69443;51.442;10.564;2023-05-10T13:57:10;0.52;;;0.32;;
80133;SDS011;69443;51.442;10.564;2023-05-10T13:59:38;0.65;;;0.40;;
80133;SDS011;69443;51.442;10.564;2023-05-10T14:02:04;1.60;;;0.47;;
80133;SDS011;69443;51.442;10.564;2023-05-10T14:04:29;0.40;;;0.40;;
80133;SDS011;69443;51.442;10.564;2023-05-10T14:06:55;0.52;;;0.40;;
80133;SDS011;69443;51.442;10.564;2023-05-10T14:09:21;0.55;;;0.55;;
80133;SDS011;69443;51.442;10.564;2023-05-10T14:11:46;0.40;;;0.40;;
80133;SDS011;69443;51.442;10.564;2023-05-10T14:14:12;1.45;;;0.50;;
80133;SDS011;69443;51.442;10.564;2023-05-10T14:16:40;0.90;;;0.50;;
80133;SDS011;69443;51.442;10.564;2023-05-10T14:19:09;0.85;;;0.30;;
80133;SDS011;69443;51.442;10.564;2023-05-10T14:21:35;1.30;;;0.57;;
80133;SDS011;69443;51.442;10.564;2023-05-10T14:24:02;0.60;;;0.50;;
80133;SDS011;69443;51.442;10.564;2023-05-10T14:26:27;1.85;;;0.50;;
80133;SDS011;69443;51.442;10.564;2023-05-10T14:28:53;1.08;;;0.40;;
80133;SDS011;69443;51.442;10.564;2023-05-10T14:31:18;0.45;;;0.22;;
80133;SDS011;69443;51.442;10.564;2023-05-10T14:33:45;0.38;;;0.38;;
80133;SDS011;69443;51.442;10.564;2023-05-10T14:36:14;1.02;;;0.40;;
80133;SDS011;69443;51.442;10.564;2023-05-10T14:38:40;0.85;;;0.40;;
80133;SDS011;69443;51.442;10.564;2023-05-10T14:41:06;0.77;;;0.35;;
80133;SDS011;69443;51.442;10.564;2023-05-10T14:43:31;0.50;;;0.45;;
80133;SDS011;69443;51.442;10.564;2023-05-10T14:45:57;0.82;;;0.50;;
80133;SDS011;69443;51.442;10.564;2023-05-10T14:48:22;1.83;;;0.50;;
80133;SDS011;69443;51.442;10.564;2023-05-10T14:50:48;0.63;;;0.60;;
80133;SDS011;69443;51.442;10.564;2023-05-10T14:53:14;0.45;;;0.40;;
80133;SDS011;69443;51.442;10.564;2023-05-10T14:55:40;0.50;;;0.40;;
80133;SDS011;69443;51.442;10.564;2023-05-10T14:58:05;0.43;;;0.43;;
80133;SDS011;69443;51.442;10.564;2023-05-10T15:00:31;0.75;;;0.50;;
80133;SDS011;69443;51.442;10.564;2023-05-10T15:02:56;1.65;;;0.68;;
80133;SDS011;69443;51.442;10.564;2023-05-10T15:05:22;0.73;;;0.60;;
80133;SDS011;69443;51.442;10.564;2023-05-10T15:07:48;0.90;;;0.60;;
80133;SDS011;69443;51.442;10.564;2023-05-10T15:10:14;0.95;;;0.47;;
80133;SDS011;69443;51.442;10.564;2023-05-10T15:12:39;0.98;;;0.60;;